createdAt,value
2019-02-25T00:01:01.115Z,34.20
2019-02-25T00:03:04.206Z,34.30
2019-02-25T00:05:07.134Z,34.40
2019-02-25T00:07:10.061Z,34.40
2019-02-25T00:09:13.134Z,34.30
2019-02-25T00:11:16.055Z,34.20
2019-02-25T00:13:19.563Z,34.20
2019-02-25T00:15:22.503Z,34.20
2019-02-25T00:17:27.196Z,34.20
2019-02-25T00:19:30.870Z,34.20
2019-02-25T00:21:34.004Z,34.10
2019-02-25T00:23:36.918Z,34.10
2019-02-25T00:25:39.835Z,33.90
2019-02-25T00:27:43.650Z,33.90
2019-02-25T00:29:47.326Z,33.90
2019-02-25T00:31:50.267Z,33.80
2019-02-25T00:33:53.439Z,33.80
2019-02-25T00:35:56.359Z,33.60
2019-02-25T00:37:59.276Z,33.30
2019-02-25T00:40:02.997Z,33.30
2019-02-25T00:42:05.914Z,33.20
2019-02-25T00:44:08.833Z,33.30
2019-02-25T00:46:12.753Z,34.20
2019-02-25T00:48:16.433Z,33.60
2019-02-25T00:50:19.342Z,33.50
2019-02-25T00:52:23.064Z,33.90
2019-02-25T00:54:26.004Z,33.80
2019-02-25T00:56:29.096Z,34.00
2019-02-25T00:58:33.227Z,35.00
2019-02-25T01:00:36.906Z,34.40
2019-02-25T01:02:40.578Z,34.40
2019-02-25T01:04:43.706Z,34.30
2019-02-25T01:06:46.622Z,34.40
2019-02-25T01:08:49.538Z,34.30
2019-02-25T01:10:53.376Z,34.30
2019-02-25T01:12:56.286Z,34.20
2019-02-25T01:14:59.198Z,34.20
2019-02-25T01:17:02.146Z,34.20
2019-02-25T01:19:05.067Z,34.10
2019-02-25T01:21:07.988Z,33.90
2019-02-25T01:23:10.956Z,33.70
2019-02-25T01:25:15.400Z,33.40
2019-02-25T01:27:18.308Z,33.30
2019-02-25T01:29:21.246Z,33.10
2019-02-25T01:31:24.171Z,33.00
2019-02-25T01:33:27.195Z,32.90
2019-02-25T01:35:30.899Z,32.80
2019-02-25T01:37:34.697Z,32.70
2019-02-25T01:39:39.201Z,32.60
2019-02-25T01:41:42.141Z,32.50
2019-02-25T01:43:45.048Z,32.40
2019-02-25T01:45:48.744Z,32.10
2019-02-25T01:47:51.693Z,32.10
2019-02-25T01:49:54.609Z,31.90
2019-02-25T01:51:57.627Z,31.90
2019-02-25T01:54:01.328Z,31.90
2019-02-25T01:56:05.024Z,31.60
2019-02-25T01:58:08.710Z,31.60
2019-02-25T02:00:17.981Z,31.60
2019-02-25T02:02:20.893Z,31.50
2019-02-25T02:04:23.822Z,31.50
2019-02-25T02:06:27.530Z,31.40
2019-02-25T02:08:30.451Z,31.40
2019-02-25T02:10:33.361Z,31.40
2019-02-25T02:12:36.295Z,31.30
2019-02-25T02:14:40.048Z,30.80
2019-02-25T02:16:42.954Z,31.20
2019-02-25T02:18:46.775Z,31.20
2019-02-25T02:20:49.702Z,31.10
2019-02-25T02:22:52.715Z,31.10
2019-02-25T02:24:56.390Z,31.00
2019-02-25T02:26:59.250Z,31.00
2019-02-25T02:29:02.130Z,30.80
2019-02-25T02:31:05.029Z,30.70
2019-02-25T02:33:08.299Z,30.80
2019-02-25T02:35:11.522Z,30.70
2019-02-25T02:37:14.619Z,30.50
2019-02-25T02:39:18.246Z,31.10
2019-02-25T02:41:21.147Z,30.40
2019-02-25T02:43:24.163Z,30.40
2019-02-25T02:45:28.463Z,30.20
2019-02-25T02:47:31.335Z,30.20
2019-02-25T02:49:34.432Z,30.10
2019-02-25T02:51:38.946Z,30.00
2019-02-25T02:53:41.959Z,30.50
2019-02-25T02:55:45.222Z,30.00
2019-02-25T02:57:48.092Z,29.90
2019-02-25T02:59:50.967Z,29.90
2019-02-25T03:01:53.870Z,29.90
2019-02-25T03:03:56.793Z,29.90
2019-02-25T03:05:59.734Z,29.90
2019-02-25T03:08:03.030Z,29.80
2019-02-25T03:10:05.893Z,29.80
2019-02-25T03:12:08.767Z,29.70
2019-02-25T03:14:11.768Z,29.60
2019-02-25T03:16:15.492Z,29.40
2019-02-25T03:18:19.136Z,29.50
2019-02-25T03:20:22.192Z,29.50
2019-02-25T03:22:25.070Z,29.50
2019-02-25T03:24:27.948Z,29.50
2019-02-25T03:26:30.859Z,29.40
2019-02-25T03:28:33.772Z,29.30
2019-02-25T03:30:36.752Z,29.30
2019-02-25T03:32:39.746Z,29.30
2019-02-25T03:34:42.611Z,29.30
2019-02-25T03:36:45.499Z,29.30
2019-02-25T03:38:48.507Z,29.30
2019-02-25T03:40:51.465Z,29.20
2019-02-25T03:42:54.577Z,29.30
2019-02-25T03:44:58.358Z,29.30
2019-02-25T03:47:01.341Z,29.20
2019-02-25T03:49:04.218Z,29.20
2019-02-25T03:51:08.050Z,29.20
2019-02-25T03:53:11.444Z,29.20
2019-02-25T03:55:22.080Z,29.20
2019-02-25T03:57:24.974Z,29.20
2019-02-25T03:59:28.623Z,29.30
2019-02-25T04:01:32.155Z,29.20
2019-02-25T04:03:35.137Z,29.30
2019-02-25T04:05:38.010Z,29.30
2019-02-25T04:07:40.883Z,29.30
2019-02-25T04:09:43.781Z,29.30
2019-02-25T04:11:46.750Z,29.30
2019-02-25T04:13:49.771Z,29.40
2019-02-25T04:15:53.639Z,29.40
2019-02-25T04:17:56.524Z,29.60
2019-02-25T04:19:59.396Z,29.70
2019-02-25T04:22:03.200Z,30.40
2019-02-25T04:24:06.094Z,29.80
2019-02-25T04:26:08.962Z,29.80
2019-02-25T04:28:12.559Z,29.90
2019-02-25T04:30:15.435Z,30.00
2019-02-25T04:32:18.310Z,30.20
2019-02-25T04:34:21.310Z,30.10
2019-02-25T04:36:24.291Z,30.10
2019-02-25T04:38:27.209Z,30.20
2019-02-25T04:40:31.582Z,30.20
2019-02-25T04:42:34.484Z,30.10
2019-02-25T04:44:37.460Z,30.10
2019-02-25T04:46:41.141Z,30.10
2019-02-25T04:48:44.010Z,30.00
2019-02-25T04:50:46.911Z,30.00
2019-02-25T04:52:49.903Z,30.00
2019-02-25T04:54:52.811Z,30.00
2019-02-25T04:56:57.230Z,30.90
2019-02-25T04:59:00.142Z,30.20
2019-02-25T05:01:03.035Z,30.30
2019-02-25T05:03:05.916Z,30.50
2019-02-25T05:05:09.237Z,30.60
2019-02-25T05:07:12.118Z,30.70
2019-02-25T05:09:15.101Z,30.80
2019-02-25T05:11:18.069Z,31.00
2019-02-25T05:13:20.970Z,31.10
2019-02-25T05:15:23.858Z,31.90
2019-02-25T05:17:26.931Z,31.40
2019-02-25T05:19:29.799Z,31.60
2019-02-25T05:21:32.794Z,31.70
2019-02-25T05:23:35.807Z,31.70
2019-02-25T05:25:39.474Z,31.80
2019-02-25T05:27:42.357Z,31.80
2019-02-25T05:29:45.255Z,31.80
2019-02-25T05:31:48.934Z,32.00
2019-02-25T05:33:51.840Z,31.90
2019-02-25T05:35:55.517Z,31.90
2019-02-25T05:37:58.468Z,31.90
2019-02-25T05:40:01.684Z,31.90
2019-02-25T05:42:04.600Z,32.00
2019-02-25T05:44:08.622Z,32.50
2019-02-25T05:46:12.023Z,32.40
2019-02-25T05:48:14.985Z,32.00
2019-02-25T05:50:19.506Z,32.00
2019-02-25T05:52:22.435Z,32.00
2019-02-25T05:54:26.043Z,32.10
2019-02-25T05:56:28.927Z,32.30
2019-02-25T05:58:33.323Z,32.40
2019-02-25T06:00:36.229Z,32.30
2019-02-25T06:02:39.105Z,32.30
2019-02-25T06:04:42.004Z,32.30
2019-02-25T06:06:45.693Z,32.60
2019-02-25T06:08:48.580Z,32.60
2019-02-25T06:10:52.608Z,33.60
2019-02-25T06:12:57.226Z,33.40
2019-02-25T06:15:00.904Z,33.60
2019-02-25T06:17:03.784Z,33.50
2019-02-25T06:19:06.671Z,33.70
2019-02-25T06:21:11.313Z,34.00
2019-02-25T06:23:14.948Z,34.10
2019-02-25T06:25:17.872Z,34.00
2019-02-25T06:27:30.261Z,34.20
2019-02-25T06:29:24.166Z,34.30
2019-02-25T06:31:27.868Z,33.60
2019-02-25T06:33:31.499Z,34.10
2019-02-25T06:35:34.526Z,34.10
2019-02-25T06:37:37.423Z,34.10
2019-02-25T06:39:41.819Z,34.10
2019-02-25T06:41:44.945Z,34.10
2019-02-25T06:43:48.702Z,33.80
2019-02-25T06:45:51.604Z,33.80
2019-02-25T06:47:55.291Z,33.60
2019-02-25T06:49:59.007Z,33.40
2019-02-25T06:52:02.666Z,33.20
2019-02-25T06:54:05.762Z,33.20
2019-02-25T06:56:09.091Z,33.20
2019-02-25T06:58:12.751Z,33.30
2019-02-25T07:00:16.503Z,33.30
2019-02-25T07:02:19.815Z,33.10
2019-02-25T07:04:28.643Z,33.10
2019-02-25T07:06:32.575Z,33.70
2019-02-25T07:08:53.229Z,33.60
2019-02-25T07:10:59.574Z,33.80
2019-02-25T07:13:08.007Z,33.60
2019-02-25T07:15:21.614Z,33.60
2019-02-25T07:17:40.148Z,33.50
2019-02-25T07:19:59.858Z,33.50
2019-02-25T07:22:09.651Z,33.50
2019-02-25T07:24:22.757Z,33.50
2019-02-25T07:26:32.303Z,33.80
2019-02-25T07:28:50.835Z,34.00
2019-02-25T07:30:57.346Z,34.10
2019-02-25T07:33:05.895Z,34.20
2019-02-25T07:35:14.473Z,34.10
2019-02-25T07:37:33.016Z,34.10
2019-02-25T07:39:37.552Z,34.10
2019-02-25T07:41:41.311Z,34.00
2019-02-25T07:43:44.323Z,33.90
2019-02-25T07:45:50.740Z,33.80
2019-02-25T07:47:55.107Z,33.70
2019-02-25T07:50:00.507Z,33.70
2019-02-25T07:52:07.887Z,33.70
2019-02-25T07:54:11.365Z,33.80
2019-02-25T07:56:29.348Z,33.80
2019-02-25T07:58:35.860Z,33.80
2019-02-25T08:00:41.272Z,33.80
2019-02-25T08:02:47.222Z,33.70
2019-02-25T08:04:50.103Z,33.60
2019-02-25T08:06:58.779Z,33.50
2019-02-25T08:09:03.626Z,33.40
2019-02-25T08:11:10.152Z,33.00
2019-02-25T08:13:17.919Z,32.90
2019-02-25T08:15:21.070Z,32.70
2019-02-25T08:17:30.287Z,32.90
2019-02-25T08:19:37.728Z,32.90
2019-02-25T08:21:58.492Z,32.70
2019-02-25T08:24:12.159Z,32.90
2019-02-25T08:26:16.576Z,32.80
2019-02-25T08:28:25.312Z,32.90
2019-02-25T08:30:30.036Z,32.90
2019-02-25T08:32:38.111Z,33.10
2019-02-25T08:34:51.707Z,33.00
2019-02-25T08:37:14.130Z,32.90
2019-02-25T08:39:17.952Z,33.00
2019-02-25T08:41:27.071Z,32.90
2019-02-25T08:43:30.056Z,33.00
2019-02-25T08:45:33.000Z,33.00
2019-02-25T08:47:36.737Z,33.10
2019-02-25T08:49:41.150Z,33.30
2019-02-25T08:51:44.928Z,33.70
2019-02-25T08:53:47.938Z,33.30
2019-02-25T08:55:50.824Z,33.20
2019-02-25T08:57:54.480Z,33.80
2019-02-25T08:59:57.503Z,33.60
2019-02-25T09:02:01.164Z,33.60
2019-02-25T09:04:04.044Z,33.50
2019-02-25T09:06:08.097Z,33.50
2019-02-25T09:08:10.959Z,33.50
2019-02-25T09:10:13.883Z,33.40
2019-02-25T09:12:17.976Z,33.30
2019-02-25T09:14:20.866Z,33.20
2019-02-25T09:16:23.871Z,33.20
2019-02-25T09:18:26.913Z,33.10
2019-02-25T09:20:31.507Z,32.70
2019-02-25T09:22:34.383Z,32.70
2019-02-25T09:24:37.299Z,32.50
2019-02-25T09:26:40.952Z,32.30
2019-02-25T09:28:44.359Z,32.20
2019-02-25T09:30:47.476Z,32.00
2019-02-25T09:32:50.348Z,31.80
2019-02-25T09:34:53.219Z,31.50
2019-02-25T09:36:56.125Z,31.40
2019-02-25T09:38:59.825Z,31.20
2019-02-25T09:41:03.927Z,31.10
2019-02-25T09:43:08.586Z,30.80
2019-02-25T09:45:18.496Z,30.80
2019-02-25T09:47:21.388Z,30.60
2019-02-25T09:49:25.655Z,30.20
2019-02-25T09:51:28.543Z,30.10
2019-02-25T09:53:31.450Z,30.00
2019-02-25T09:55:35.872Z,30.20
2019-02-25T09:57:39.975Z,30.50
2019-02-25T09:59:42.863Z,29.90
2019-02-25T10:01:47.096Z,29.80
2019-02-25T10:03:50.727Z,28.90
2019-02-25T10:05:53.588Z,29.50
2019-02-25T10:07:56.532Z,28.70
2019-02-25T10:09:59.923Z,28.80
2019-02-25T10:12:03.581Z,29.30
2019-02-25T10:14:06.600Z,28.80
2019-02-25T10:16:09.591Z,28.90
2019-02-25T10:18:12.575Z,28.80
2019-02-25T10:20:16.364Z,29.00
2019-02-25T10:22:19.239Z,28.90
2019-02-25T10:24:22.131Z,28.80
2019-02-25T10:26:25.058Z,28.90
2019-02-25T10:28:28.741Z,28.90
2019-02-25T10:30:32.870Z,29.00
2019-02-25T10:32:35.903Z,28.90
2019-02-25T10:34:38.802Z,28.80
2019-02-25T10:36:44.088Z,29.40
2019-02-25T10:38:46.292Z,28.80
2019-02-25T10:40:51.587Z,28.90
2019-02-25T10:42:52.659Z,28.80
2019-02-25T10:44:55.664Z,28.80
2019-02-25T10:46:59.307Z,29.30
2019-02-25T10:49:11.162Z,29.30
2019-02-25T10:51:06.914Z,30.40
2019-02-25T10:53:08.065Z,32.10
2019-02-25T10:55:18.328Z,32.60
2019-02-25T10:57:23.898Z,32.80
2019-02-25T10:59:24.773Z,32.90
2019-02-25T11:01:27.653Z,32.90
2019-02-25T11:03:30.892Z,32.80
2019-02-25T11:05:33.767Z,33.00
2019-02-25T11:07:37.887Z,33.00
2019-02-25T11:09:57.799Z,32.80
2019-02-25T11:12:00.869Z,32.70
2019-02-25T11:14:05.136Z,33.20
2019-02-25T11:16:09.726Z,33.70
2019-02-25T11:18:12.110Z,33.60
2019-02-25T11:20:17.352Z,33.20
2019-02-25T11:22:20.254Z,33.20
2019-02-25T11:24:25.240Z,33.20
2019-02-25T11:26:28.383Z,33.10
2019-02-25T11:28:31.750Z,32.30
2019-02-25T11:30:33.015Z,31.80
2019-02-25T11:32:35.930Z,32.10
2019-02-25T11:34:39.957Z,33.30
2019-02-25T11:36:42.471Z,33.40
2019-02-25T11:38:45.494Z,32.90
2019-02-25T11:40:49.182Z,32.10
2019-02-25T11:42:52.871Z,31.80
2019-02-25T11:44:59.113Z,31.40
2019-02-25T11:47:00.750Z,31.40
2019-02-25T11:49:03.624Z,31.20
2019-02-25T11:51:06.515Z,31.40
2019-02-25T11:53:09.384Z,31.30
2019-02-25T11:55:14.172Z,31.30
2019-02-25T11:57:17.948Z,31.10
2019-02-25T11:59:21.595Z,31.50
2019-02-25T12:01:25.302Z,30.90
2019-02-25T12:03:28.484Z,30.80
2019-02-25T12:05:32.130Z,30.70
2019-02-25T12:07:35.107Z,30.60
2019-02-25T12:09:38.103Z,30.60
2019-02-25T12:11:41.926Z,30.60
2019-02-25T12:13:45.568Z,30.20
2019-02-25T12:15:48.579Z,30.10
2019-02-25T12:17:52.106Z,30.00
2019-02-25T12:19:55.748Z,30.80
2019-02-25T12:21:59.164Z,30.80
2019-02-25T12:24:02.154Z,30.80
2019-02-25T12:26:05.162Z,30.60
2019-02-25T12:28:08.829Z,30.60
2019-02-25T12:30:12.503Z,30.50
2019-02-25T12:32:15.444Z,30.40
2019-02-25T12:34:18.347Z,30.50
2019-02-25T12:36:21.229Z,30.30
2019-02-25T12:38:24.303Z,30.00
2019-02-25T12:40:27.215Z,29.90
2019-02-25T12:42:30.110Z,29.80
2019-02-25T12:44:32.999Z,29.70
2019-02-25T12:46:36.086Z,29.60
2019-02-25T12:48:38.971Z,29.50
2019-02-25T12:50:41.847Z,29.30
2019-02-25T12:52:44.847Z,29.20
2019-02-25T12:54:48.640Z,29.00
2019-02-25T12:56:51.514Z,28.90
2019-02-25T12:58:54.499Z,28.90
2019-02-25T13:00:57.378Z,28.80
2019-02-25T13:03:00.296Z,28.60
2019-02-25T13:05:03.947Z,28.30
2019-02-25T13:07:06.837Z,28.30
2019-02-25T13:09:11.231Z,28.30
2019-02-25T13:11:14.151Z,28.20
2019-02-25T13:13:18.143Z,28.40
2019-02-25T13:15:21.162Z,28.40
2019-02-25T13:17:24.791Z,28.50
2019-02-25T13:19:27.895Z,28.90
2019-02-25T13:21:31.855Z,28.30
2019-02-25T13:23:34.802Z,28.10
2019-02-25T13:25:37.688Z,27.90
2019-02-25T13:27:40.769Z,27.70
2019-02-25T13:29:44.732Z,27.70
2019-02-25T13:31:47.923Z,27.60
2019-02-25T13:33:50.843Z,27.50
2019-02-25T13:35:53.727Z,27.30
2019-02-25T13:37:56.753Z,27.70
2019-02-25T13:40:00.033Z,27.80
2019-02-25T13:42:02.927Z,27.70
2019-02-25T13:44:05.967Z,27.70
2019-02-25T13:46:10.362Z,27.30
2019-02-25T13:48:13.263Z,27.30
2019-02-25T13:50:16.555Z,27.10
2019-02-25T13:52:20.212Z,27.00
2019-02-25T13:54:23.096Z,26.90
2019-02-25T13:56:26.524Z,27.00
2019-02-25T13:58:29.399Z,27.20
2019-02-25T14:00:33.923Z,27.00
2019-02-25T14:02:36.876Z,26.90
2019-02-25T14:04:39.717Z,27.00
2019-02-25T14:06:42.619Z,27.00
2019-02-25T14:08:45.479Z,27.00
2019-02-25T14:10:49.147Z,26.90
2019-02-25T14:12:52.103Z,26.80
2019-02-25T14:14:55.167Z,27.00
2019-02-25T14:16:58.460Z,26.90
2019-02-25T14:19:01.363Z,26.80
2019-02-25T14:21:04.263Z,26.90
2019-02-25T14:23:07.134Z,26.90
2019-02-25T14:25:12.528Z,26.50
2019-02-25T14:27:15.376Z,26.40
2019-02-25T14:29:18.252Z,26.40
2019-02-25T14:31:22.659Z,27.00
2019-02-25T14:33:25.649Z,27.00
2019-02-25T14:35:31.305Z,27.30
2019-02-25T14:37:35.023Z,27.60
2019-02-25T14:39:40.803Z,27.40
2019-02-25T14:41:42.212Z,27.40
2019-02-25T14:43:47.030Z,27.60
2019-02-25T14:45:53.134Z,26.90
2019-02-25T14:47:55.396Z,26.70
2019-02-25T14:49:54.423Z,26.60
2019-02-25T14:51:57.313Z,26.70
2019-02-25T14:54:00.271Z,26.80
2019-02-25T14:56:04.109Z,27.00
2019-02-25T14:58:07.357Z,27.00
2019-02-25T15:00:10.594Z,27.20
2019-02-25T15:02:14.404Z,27.60
2019-02-25T15:04:18.079Z,27.40
2019-02-25T15:06:22.459Z,27.30
2019-02-25T15:08:26.255Z,27.30
2019-02-25T15:10:31.687Z,27.80
2019-02-25T15:12:34.272Z,27.40
2019-02-25T15:14:35.947Z,27.50
2019-02-25T15:16:40.479Z,27.90
2019-02-25T15:18:43.355Z,27.90
2019-02-25T15:20:46.235Z,28.00
2019-02-25T15:22:49.130Z,27.90
2019-02-25T15:24:54.647Z,28.10
2019-02-25T15:26:59.457Z,28.10
2019-02-25T15:29:02.760Z,28.30
2019-02-25T15:31:06.967Z,27.70
2019-02-25T15:33:09.863Z,27.80
2019-02-25T15:35:12.759Z,27.80
2019-02-25T15:37:16.699Z,27.70
2019-02-25T15:39:19.676Z,27.40
2019-02-25T15:41:23.315Z,28.00
2019-02-25T15:43:29.245Z,28.00
2019-02-25T15:45:30.705Z,27.80
2019-02-25T15:47:33.589Z,27.80
2019-02-25T15:49:36.473Z,27.80
2019-02-25T15:51:41.124Z,27.90
2019-02-25T15:53:46.203Z,28.00
2019-02-25T15:55:45.668Z,27.80
2019-02-25T15:57:49.344Z,27.80
2019-02-25T15:59:52.272Z,27.70
2019-02-25T16:01:55.204Z,27.50
2019-02-25T16:04:02.271Z,27.50
2019-02-25T16:06:03.956Z,27.50
2019-02-25T16:08:04.913Z,27.40
2019-02-25T16:10:12.007Z,27.70
2019-02-25T16:12:13.399Z,27.60
2019-02-25T16:14:16.279Z,27.60
2019-02-25T16:16:20.011Z,27.70
2019-02-25T16:18:22.172Z,27.80
2019-02-25T16:20:25.827Z,27.90
2019-02-25T16:22:29.910Z,27.90
2019-02-25T16:24:32.099Z,28.10
2019-02-25T16:26:36.135Z,28.10
2019-02-25T16:28:39.842Z,28.20
2019-02-25T16:30:44.509Z,28.10
2019-02-25T16:32:46.279Z,28.00
2019-02-25T16:34:48.904Z,28.00
2019-02-25T16:36:53.586Z,28.00
2019-02-25T16:38:56.224Z,28.50
2019-02-25T16:41:00.974Z,28.10
2019-02-25T16:43:04.674Z,28.10
2019-02-25T16:45:11.808Z,27.70
2019-02-25T16:47:13.843Z,27.70
2019-02-25T16:49:17.016Z,27.60
2019-02-25T16:51:19.898Z,27.50
2019-02-25T16:53:22.831Z,27.60
2019-02-25T16:55:27.703Z,27.60
2019-02-25T16:57:29.447Z,27.50
2019-02-25T16:59:32.359Z,27.40
2019-02-25T17:01:37.488Z,27.20
2019-02-25T17:03:39.739Z,27.10
2019-02-25T17:05:42.894Z,27.20
2019-02-25T17:07:46.521Z,27.20
2019-02-25T17:09:48.288Z,27.10
2019-02-25T17:11:51.292Z,27.30
2019-02-25T17:13:55.130Z,27.20
2019-02-25T17:15:58.001Z,27.10
2019-02-25T17:18:01.677Z,27.10
2019-02-25T17:20:10.517Z,27.10
2019-02-25T17:22:11.875Z,27.20
2019-02-25T17:24:15.378Z,27.10
2019-02-25T17:26:19.617Z,27.30
2019-02-25T17:28:22.674Z,27.50
2019-02-25T17:30:25.584Z,27.90
2019-02-25T17:32:28.455Z,27.80
2019-02-25T17:34:32.254Z,27.90
2019-02-25T17:36:34.263Z,27.90
2019-02-25T17:38:37.226Z,28.00
2019-02-25T17:40:40.214Z,28.10
2019-02-25T17:42:45.319Z,28.20
2019-02-25T17:44:47.513Z,28.10
2019-02-25T17:46:51.088Z,28.20
2019-02-25T17:48:53.983Z,28.30
2019-02-25T17:50:57.270Z,28.20
2019-02-25T17:53:01.327Z,28.50
2019-02-25T17:55:04.556Z,28.40
2019-02-25T17:57:07.597Z,28.40
2019-02-25T17:59:10.119Z,28.60
2019-02-25T18:01:13.004Z,28.60
2019-02-25T18:03:17.400Z,28.50
2019-02-25T18:05:20.717Z,28.60
2019-02-25T18:07:22.095Z,28.70
2019-02-25T18:09:25.897Z,28.80
2019-02-25T18:11:29.588Z,28.80
2019-02-25T18:13:35.207Z,28.80
2019-02-25T18:15:36.934Z,28.80
2019-02-25T18:17:42.581Z,28.90
2019-02-25T18:19:45.712Z,28.90
2019-02-25T18:21:47.251Z,28.90
2019-02-25T18:23:51.992Z,28.90
2019-02-25T18:25:53.618Z,28.90
2019-02-25T18:27:56.111Z,28.90
2019-02-25T18:29:59.767Z,29.10
2019-02-25T18:32:04.325Z,29.10
2019-02-25T18:34:06.875Z,29.20
2019-02-25T18:36:11.280Z,29.20
2019-02-25T18:38:13.777Z,29.30
2019-02-25T18:40:19.023Z,29.80
2019-02-25T18:42:20.781Z,29.20
2019-02-25T18:44:23.551Z,29.30
2019-02-25T18:46:27.702Z,29.50
2019-02-25T18:48:30.152Z,29.80
2019-02-25T18:50:33.928Z,30.00
2019-02-25T18:52:38.525Z,29.80
2019-02-25T18:54:41.216Z,30.00
2019-02-25T18:56:44.625Z,30.10
2019-02-25T18:58:47.451Z,30.40
2019-02-25T19:00:51.468Z,30.20
2019-02-25T19:02:56.068Z,30.20
2019-02-25T19:04:58.218Z,30.20
2019-02-25T19:07:01.948Z,30.20
2019-02-25T19:09:04.659Z,30.30
2019-02-25T19:11:07.548Z,30.30
2019-02-25T19:13:10.649Z,30.40
2019-02-25T19:15:14.323Z,30.70
2019-02-25T19:17:17.216Z,30.60
2019-02-25T19:19:22.311Z,30.80
2019-02-25T19:21:26.033Z,30.80
2019-02-25T19:23:28.915Z,30.70
2019-02-25T19:25:33.329Z,30.80
2019-02-25T19:27:36.336Z,30.80
2019-02-25T19:29:40.570Z,30.70
2019-02-25T19:31:44.241Z,30.70
2019-02-25T19:33:47.146Z,30.70
2019-02-25T19:35:52.489Z,31.00
2019-02-25T19:37:54.346Z,30.90
2019-02-25T19:39:57.209Z,31.10
2019-02-25T19:42:01.689Z,31.30
2019-02-25T19:44:05.685Z,31.30
2019-02-25T19:46:08.738Z,31.30
2019-02-25T19:48:10.481Z,31.40
2019-02-25T19:50:14.123Z,31.40
2019-02-25T19:52:17.137Z,31.30
2019-02-25T19:54:20.030Z,31.40
2019-02-25T19:56:23.548Z,31.40
2019-02-25T19:58:30.898Z,31.50
2019-02-25T20:00:30.347Z,31.60
2019-02-25T20:02:34.683Z,31.60
2019-02-25T20:04:37.731Z,31.60
2019-02-25T20:06:39.869Z,31.70
2019-02-25T20:08:43.125Z,31.80
2019-02-25T20:10:46.008Z,32.00
2019-02-25T20:12:50.930Z,32.00
2019-02-25T20:14:51.831Z,32.10
2019-02-25T20:16:56.556Z,32.30
2019-02-25T20:19:00.310Z,32.40
2019-02-25T20:21:05.663Z,32.50
2019-02-25T20:23:08.388Z,32.50
2019-02-25T20:25:10.784Z,32.60
2019-02-25T20:27:13.726Z,32.50
2019-02-25T20:29:16.919Z,32.50
2019-02-25T20:31:20.766Z,32.40
2019-02-25T20:33:29.871Z,32.40
2019-02-25T20:35:29.575Z,32.60
2019-02-25T20:37:33.832Z,32.60
2019-02-25T20:39:38.651Z,32.70
2019-02-25T20:41:40.337Z,32.60
2019-02-25T20:43:44.527Z,32.80
2019-02-25T20:45:48.209Z,33.00
2019-02-25T20:47:52.251Z,33.70
2019-02-25T20:49:56.097Z,33.60
2019-02-25T20:52:01.169Z,33.50
2019-02-25T20:54:01.871Z,34.00
2019-02-25T20:56:04.983Z,33.90
2019-02-25T20:58:08.198Z,34.10
2019-02-25T21:00:27.821Z,34.10
2019-02-25T21:02:31.139Z,34.10
2019-02-25T21:04:36.747Z,35.00
2019-02-25T21:06:39.594Z,34.30
2019-02-25T21:08:42.367Z,34.40
2019-02-25T21:10:43.958Z,34.50
2019-02-25T21:12:47.556Z,34.60
2019-02-25T21:14:50.491Z,34.60
2019-02-25T21:16:55.924Z,34.60
2019-02-25T21:18:58.031Z,34.30
2019-02-25T21:21:01.211Z,34.60
2019-02-25T21:23:05.977Z,34.60
2019-02-25T21:25:07.565Z,34.60
2019-02-25T21:27:11.295Z,34.70
2019-02-25T21:29:14.346Z,34.70
2019-02-25T21:31:20.910Z,34.80
2019-02-25T21:33:23.705Z,34.70
2019-02-25T21:35:27.628Z,34.80
2019-02-25T21:37:29.369Z,34.90
2019-02-25T21:39:34.409Z,34.80
2019-02-25T21:41:37.457Z,34.80
2019-02-25T21:43:43.378Z,35.00
2019-02-25T21:45:46.105Z,34.80
2019-02-25T21:47:47.644Z,35.00
2019-02-25T21:49:48.907Z,35.00
2019-02-25T21:51:51.951Z,35.00
2019-02-25T21:53:57.597Z,34.60
2019-02-25T21:56:04.237Z,35.00
2019-02-25T21:58:03.022Z,35.00
2019-02-25T22:00:15.098Z,35.10
2019-02-25T22:02:18.011Z,35.00
2019-02-25T22:04:22.504Z,34.90
2019-02-25T22:06:26.734Z,35.00
2019-02-25T22:08:29.096Z,35.00
2019-02-25T22:10:34.090Z,35.00
2019-02-25T22:12:35.785Z,35.00
2019-02-25T22:14:36.587Z,34.90
2019-02-25T22:16:44.059Z,34.90
2019-02-25T22:18:43.929Z,34.80
2019-02-25T22:20:47.677Z,34.80
2019-02-25T22:22:54.523Z,34.90
2019-02-25T22:24:53.394Z,34.90
2019-02-25T22:26:58.030Z,35.10
2019-02-25T22:29:01.747Z,35.00
2019-02-25T22:31:08.899Z,35.10
2019-02-25T22:33:27.031Z,35.20
2019-02-25T22:35:20.387Z,35.10
2019-02-25T22:37:24.993Z,35.10
2019-02-25T22:39:27.842Z,35.20
2019-02-25T22:41:29.643Z,34.70
2019-02-25T22:43:32.766Z,35.40
2019-02-25T22:45:38.043Z,35.40
2019-02-25T22:47:40.655Z,36.10
2019-02-25T22:49:43.588Z,35.40
2019-02-25T22:51:46.481Z,35.50
2019-02-25T22:53:50.135Z,35.60
2019-02-25T22:55:54.704Z,35.80
2019-02-25T22:57:57.503Z,36.00
2019-02-25T23:00:06.381Z,35.80
2019-02-25T23:02:08.800Z,36.10
2019-02-25T23:04:14.987Z,36.10
2019-02-25T23:06:15.762Z,36.50
2019-02-25T23:08:20.867Z,36.70
2019-02-25T23:10:23.993Z,36.60
2019-02-25T23:12:26.663Z,36.80
2019-02-25T23:14:27.879Z,36.90
2019-02-25T23:16:30.772Z,37.10
2019-02-25T23:18:33.692Z,37.20
2019-02-25T23:20:37.400Z,37.60
2019-02-25T23:22:41.163Z,37.20
2019-02-25T23:24:44.198Z,37.70
2019-02-25T23:26:48.750Z,38.10
2019-02-25T23:28:52.777Z,38.00
2019-02-25T23:30:55.994Z,38.30
2019-02-25T23:32:59.273Z,38.50
2019-02-25T23:35:02.159Z,38.40
2019-02-25T23:37:05.648Z,38.50
2019-02-25T23:39:08.534Z,38.70
2019-02-25T23:41:12.790Z,38.80
2019-02-25T23:43:16.513Z,39.00
2019-02-25T23:45:18.362Z,39.10
2019-02-25T23:47:20.264Z,40.10
2019-02-25T23:49:27.330Z,39.70
2019-02-25T23:51:26.136Z,40.50
2019-02-25T23:53:31.078Z,40.80
2019-02-25T23:55:32.714Z,40.70
2019-02-25T23:57:36.436Z,41.00
2019-02-25T23:59:42.401Z,41.10
